Time;durP1;ratioP1;P1;durP2;ratioP2;P2;SDS_P1;SDS_P2;PMS_P1;PMS_P2;Temp;Humidity;BMP_temperature;BMP_pressure;BME280_temperature;BME280_humidity;BME280_pressure;Samples;Min_cycle;Max_cycle;Signal;HPM_P1;HPM_P2
2022/06/26 00:01:09;;;;;;;;;;;16.80;99.90;;;;;;5057924;28;19991;-76
2022/06/26 00:03:34;;;;;;;;;;;16.80;99.90;;;;;;5044118;28;19928;-74
2022/06/26 00:06:00;;;;;;;;;;;17.00;99.90;;;;;;5063642;28;19938;-75
2022/06/26 00:08:26;;;;;;;;;;;17.20;99.90;;;;;;5045323;28;19921;-75
2022/06/26 00:10:52;;;;;;;;;;;16.80;99.90;;;;;;5065848;28;19920;-75
2022/06/26 00:13:18;;;;;;;;;;;16.80;99.90;;;;;;5062348;28;19923;-75
2022/06/26 00:15:43;;;;;;;;;;;16.90;99.90;;;;;;5045974;28;19999;-76
2022/06/26 00:18:09;;;;;;;;;;;16.80;99.90;;;;;;5040518;28;20730;-75
2022/06/26 00:20:35;;;;;;;;;;;16.80;99.90;;;;;;5031464;28;19921;-74
2022/06/26 00:23:01;;;;;;;;;;;16.90;99.90;;;;;;5033415;28;19925;-75
2022/06/26 00:25:29;;;;;;;;;;;16.90;99.90;;;;;;5032596;28;19921;-75
2022/06/26 00:27:55;;;;;;;;;;;16.90;99.90;;;;;;5032956;28;19921;-76
2022/06/26 00:30:20;;;;;;;;;;;17.00;99.90;;;;;;5032904;28;20365;-76
2022/06/26 00:32:46;;;;;;;;;;;17.00;99.90;;;;;;5033584;28;19917;-75
2022/06/26 00:35:12;;;;;;;;;;;16.90;99.90;;;;;;5033000;28;19924;-76
2022/06/26 00:37:37;;;;;;;;;;;17.00;99.90;;;;;;5034106;28;20350;-76
2022/06/26 00:40:06;;;;;;;;;;;17.00;99.90;;;;;;5033826;28;19921;-76
2022/06/26 00:42:31;;;;;;;;;;;16.90;99.90;;;;;;5033238;28;19936;-76
2022/06/26 00:44:57;;;;;;;;;;;16.90;99.90;;;;;;5033306;28;20007;-77
2022/06/26 00:47:22;;;;;;;;;;;16.90;99.90;;;;;;5033701;28;19925;-77
2022/06/26 00:49:48;;;;;;;;;;;17.00;99.90;;;;;;5033129;28;20022;-77
2022/06/26 00:52:14;;;;;;;;;;;17.00;99.90;;;;;;5033081;28;19917;-78
2022/06/26 00:54:39;;;;;;;;;;;17.00;99.90;;;;;;5034115;28;19920;-77
2022/06/26 00:57:05;;;;;;;;;;;17.00;99.90;;;;;;5032520;28;19932;-77
2022/06/26 00:59:31;;;;;;;;;;;17.00;99.90;;;;;;5033776;28;19925;-78
2022/06/26 01:01:56;;;;;;;;;;;16.90;99.90;;;;;;5032726;28;19921;-77
2022/06/26 01:04:22;;;;;;;;;;;16.90;99.90;;;;;;5032948;28;19943;-77
2022/06/26 01:06:48;;;;;;;;;;;16.90;99.90;;;;;;5033295;28;20292;-77
2022/06/26 01:09:13;;;;;;;;;;;17.00;99.90;;;;;;5031921;28;19925;-77
2022/06/26 01:11:41;;;;;;;;;;;17.00;99.90;;;;;;5027946;28;20356;-78
2022/06/26 01:14:07;;;;;;;;;;;17.00;99.90;;;;;;5032868;28;19975;-78
2022/06/26 01:16:33;;;;;;;;;;;17.20;99.90;;;;;;5031069;28;19964;-79
2022/06/26 01:18:58;;;;;;;;;;;17.00;99.90;;;;;;5038678;28;19974;-77
2022/06/26 01:21:24;;;;;;;;;;;17.00;99.90;;;;;;5043254;28;19991;-78
2022/06/26 01:23:50;;;;;;;;;;;17.00;99.90;;;;;;5051239;28;19967;-78
2022/06/26 01:26:17;;;;;;;;;;;17.00;99.90;;;;;;5043312;28;19967;-78
2022/06/26 01:28:42;;;;;;;;;;;17.20;99.90;;;;;;5053176;28;19928;-78
2022/06/26 01:31:08;;;;;;;;;;;16.90;99.90;;;;;;5042117;28;19921;-78
2022/06/26 01:33:35;;;;;;;;;;;17.00;99.90;;;;;;5043410;28;19940;-78
2022/06/26 01:36:00;;;;;;;;;;;17.00;99.90;;;;;;5052168;28;19929;-79
2022/06/26 01:38:26;;;;;;;;;;;17.10;99.90;;;;;;5051711;28;19928;-78
2022/06/26 01:40:53;;;;;;;;;;;17.00;99.90;;;;;;5052623;28;19927;-77
2022/06/26 01:43:20;;;;;;;;;;;17.00;99.90;;;;;;5043023;28;20012;-77
2022/06/26 01:45:47;;;;;;;;;;;17.00;99.90;;;;;;5051497;28;19920;-77
2022/06/26 01:48:13;;;;;;;;;;;17.00;99.90;;;;;;5052321;28;20014;-77
2022/06/26 01:50:39;;;;;;;;;;;17.30;99.90;;;;;;5043096;28;20029;-78
2022/06/26 01:53:05;;;;;;;;;;;17.00;99.90;;;;;;5038956;28;19924;-77
2022/06/26 01:55:31;;;;;;;;;;;17.40;99.90;;;;;;5052595;28;19939;-78
2022/06/26 01:57:57;;;;;;;;;;;17.10;99.90;;;;;;5042355;28;19929;-78
2022/06/26 02:00:23;;;;;;;;;;;17.00;99.90;;;;;;5051827;28;19925;-78
2022/06/26 02:02:48;;;;;;;;;;;17.00;99.90;;;;;;5052536;28;19917;-78
2022/06/26 02:05:14;;;;;;;;;;;16.90;99.90;;;;;;5038269;28;19924;-78
2022/06/26 02:07:39;;;;;;;;;;;16.90;99.90;;;;;;5051531;28;19936;-78
2022/06/26 02:15:34;;;;;;;;;;;17.30;99.90;;;;;;5048418;28;19925;-78
2022/06/26 02:17:59;;;;;;;;;;;16.90;99.90;;;;;;5041774;28;19921;-77
2022/06/26 02:20:25;;;;;;;;;;;16.90;99.90;;;;;;5051541;28;19920;-77
2022/06/26 02:22:51;;;;;;;;;;;16.90;99.90;;;;;;5051878;28;19927;-77
2022/06/26 02:25:16;;;;;;;;;;;16.90;99.90;;;;;;5040085;28;19921;-77
2022/06/26 02:27:42;;;;;;;;;;;17.10;99.90;;;;;;5051206;28;19974;-78
2022/06/26 02:30:07;;;;;;;;;;;16.90;99.90;;;;;;5042175;28;19974;-78
2022/06/26 02:32:36;;;;;;;;;;;16.90;99.90;;;;;;5051905;28;19924;-77
2022/06/26 02:35:02;;;;;;;;;;;17.00;99.90;;;;;;5040762;28;20360;-77
2022/06/26 02:37:27;;;;;;;;;;;16.90;99.90;;;;;;5042574;28;20008;-77
2022/06/26 02:39:53;;;;;;;;;;;16.90;99.90;;;;;;5050921;28;19928;-76
2022/06/26 02:42:18;;;;;;;;;;;16.90;99.90;;;;;;5051489;28;19962;-76
2022/06/26 02:44:44;;;;;;;;;;;17.00;99.90;;;;;;5051882;28;19927;-76
2022/06/26 02:47:10;;;;;;;;;;;17.00;99.90;;;;;;5051383;28;20053;-76
2022/06/26 02:49:35;;;;;;;;;;;16.90;99.90;;;;;;5051080;28;19921;-76
2022/06/26 02:52:01;;;;;;;;;;;17.10;99.90;;;;;;5042223;28;19921;-77
2022/06/26 02:54:26;;;;;;;;;;;17.00;99.90;;;;;;5042332;28;20269;-76
2022/06/26 02:56:52;;;;;;;;;;;17.00;99.90;;;;;;5040486;28;19948;-76
2022/06/26 02:59:17;;;;;;;;;;;16.90;99.90;;;;;;5051970;28;19921;-77
2022/06/26 03:01:43;;;;;;;;;;;16.90;99.90;;;;;;5051818;28;19940;-77
2022/06/26 03:04:08;;;;;;;;;;;16.80;99.90;;;;;;5041472;28;19921;-77
2022/06/26 03:06:34;;;;;;;;;;;16.80;99.90;;;;;;5051597;28;19966;-77
2022/06/26 03:08:59;;;;;;;;;;;16.60;99.90;;;;;;5040898;28;19936;-77
2022/06/26 03:11:25;;;;;;;;;;;16.50;99.90;;;;;;5051606;28;19921;-77
2022/06/26 03:13:50;;;;;;;;;;;16.50;99.90;;;;;;5051220;28;20412;-77
2022/06/26 03:16:16;;;;;;;;;;;16.60;99.90;;;;;;5040971;28;19967;-79
2022/06/26 03:18:41;;;;;;;;;;;16.60;99.90;;;;;;5051295;28;19999;-77
2022/06/26 03:21:07;;;;;;;;;;;16.40;99.90;;;;;;5041294;28;20298;-77
2022/06/26 03:26:16;;;;;;;;;;;16.40;99.90;;;;;;5041871;28;19920;-78
2022/06/26 03:28:42;;;;;;;;;;;14.20;99.90;;;;;;5051467;28;20029;-78
2022/06/26 03:31:08;;;;;;;;;;;16.30;99.90;;;;;;5049632;28;19920;-78
2022/06/26 03:33:33;;;;;;;;;;;16.30;99.90;;;;;;5041608;28;19932;-78
2022/06/26 03:35:58;;;;;;;;;;;16.30;99.90;;;;;;5050927;28;19920;-78
2022/06/26 03:38:24;;;;;;;;;;;16.40;99.90;;;;;;5050364;28;19998;-78
2022/06/26 03:40:49;;;;;;;;;;;16.30;99.90;;;;;;5050403;28;20345;-77
2022/06/26 03:43:15;;;;;;;;;;;16.30;99.90;;;;;;5051509;28;19920;-78
2022/06/26 03:45:41;;;;;;;;;;;16.50;99.90;;;;;;5051515;28;19920;-78
2022/06/26 03:48:06;;;;;;;;;;;16.30;99.90;;;;;;5054161;28;19920;-79
2022/06/26 03:50:32;;;;;;;;;;;16.30;99.90;;;;;;5044975;28;19916;-79
2022/06/26 03:52:57;;;;;;;;;;;16.30;99.90;;;;;;5053824;28;19928;-82
2022/06/26 03:55:23;;;;;;;;;;;16.30;99.90;;;;;;5054308;28;19927;-78
2022/06/26 03:57:48;;;;;;;;;;;16.30;99.90;;;;;;5054865;28;19922;-80
2022/06/26 04:00:14;;;;;;;;;;;16.30;99.90;;;;;;5053619;28;19935;-76
2022/06/26 04:02:40;;;;;;;;;;;15.00;99.90;;;;;;5054422;28;20414;-75
2022/06/26 04:05:06;;;;;;;;;;;16.20;99.90;;;;;;5043577;28;19929;-76
2022/06/26 04:07:32;;;;;;;;;;;16.40;99.90;;;;;;5054515;28;19921;-80
2022/06/26 04:09:58;;;;;;;;;;;16.40;99.90;;;;;;5044326;28;19921;-74
2022/06/26 04:12:23;;;;;;;;;;;16.40;99.90;;;;;;5053609;28;20423;-75
2022/06/26 04:14:49;;;;;;;;;;;16.50;99.90;;;;;;5054210;28;20010;-74
2022/06/26 04:17:14;;;;;;;;;;;18.90;99.90;;;;;;5054311;28;19920;-76
2022/06/26 04:19:40;;;;;;;;;;;16.50;99.90;;;;;;5043635;28;20380;-77
2022/06/26 04:22:08;;;;;;;;;;;16.50;99.90;;;;;;5053756;28;19920;-76
2022/06/26 04:24:34;;;;;;;;;;;16.50;99.90;;;;;;5053540;28;20388;-75
2022/06/26 04:26:59;;;;;;;;;;;16.60;99.90;;;;;;5052058;28;19928;-76
2022/06/26 04:29:25;;;;;;;;;;;17.00;99.90;;;;;;5053564;28;20004;-76
2022/06/26 04:31:50;;;;;;;;;;;16.60;99.90;;;;;;5043341;28;19927;-82
2022/06/26 04:34:16;;;;;;;;;;;16.60;99.90;;;;;;5044701;28;20001;-81
2022/06/26 04:36:41;;;;;;;;;;;17.00;99.90;;;;;;5044885;28;19928;-81
2022/06/26 04:39:07;;;;;;;;;;;16.60;99.90;;;;;;5045115;28;20280;-80
2022/06/26 04:41:34;;;;;;;;;;;16.90;99.90;;;;;;5054399;28;20365;-81
2022/06/26 04:44:05;;;;;;;;;;;16.60;99.90;;;;;;5062140;28;19927;-81
2022/06/26 04:46:31;;;;;;;;;;;16.60;99.90;;;;;;5049505;28;19960;-81
2022/06/26 04:48:57;;;;;;;;;;;16.60;99.90;;;;;;5043681;28;19963;-80
2022/06/26 04:51:23;;;;;;;;;;;16.60;99.90;;;;;;5053354;28;19920;-81
2022/06/26 04:53:48;;;;;;;;;;;16.60;99.90;;;;;;5053939;28;19922;-81
2022/06/26 04:56:14;;;;;;;;;;;16.60;99.90;;;;;;5042204;28;19920;-81
2022/06/26 04:58:39;;;;;;;;;;;16.60;99.90;;;;;;5052901;28;19928;-81
2022/06/26 05:01:05;;;;;;;;;;;16.70;99.90;;;;;;5043361;28;19921;-81
2022/06/26 05:03:31;;;;;;;;;;;16.70;99.90;;;;;;5039160;28;20023;-82
2022/06/26 05:05:56;;;;;;;;;;;16.70;99.90;;;;;;5043200;28;20011;-81
2022/06/26 05:08:22;;;;;;;;;;;16.80;99.90;;;;;;5052644;28;19921;-81
2022/06/26 05:10:47;;;;;;;;;;;16.90;99.90;;;;;;5053091;28;19921;-81
2022/06/26 05:13:13;;;;;;;;;;;16.90;99.90;;;;;;5052905;28;19925;-81
2022/06/26 05:15:39;;;;;;;;;;;17.00;99.90;;;;;;5052317;28;19924;-81
2022/06/26 05:18:04;;;;;;;;;;;17.00;99.90;;;;;;5055967;28;20340;-81
2022/06/26 05:20:30;;;;;;;;;;;17.10;99.90;;;;;;5060917;28;20299;-80
2022/06/26 05:22:55;;;;;;;;;;;17.20;99.90;;;;;;5045269;28;19924;-80
2022/06/26 05:25:21;;;;;;;;;;;17.10;99.90;;;;;;5045813;28;19943;-81
2022/06/26 05:27:46;;;;;;;;;;;17.10;99.90;;;;;;5045487;28;19964;-81
2022/06/26 05:30:12;;;;;;;;;;;17.10;99.90;;;;;;5061690;28;19947;-80
2022/06/26 05:32:40;;;;;;;;;;;17.00;99.90;;;;;;5063695;28;19925;-81
2022/06/26 05:35:06;;;;;;;;;;;17.10;99.90;;;;;;5063544;28;19931;-80
2022/06/26 05:37:31;;;;;;;;;;;17.00;99.90;;;;;;5062690;28;19984;-81
2022/06/26 05:39:57;;;;;;;;;;;16.90;99.90;;;;;;5066393;28;19966;-81
2022/06/26 05:42:22;;;;;;;;;;;16.90;99.90;;;;;;5041092;28;19921;-81
2022/06/26 05:44:48;;;;;;;;;;;16.90;99.90;;;;;;5046436;28;20315;-80
2022/06/26 05:47:13;;;;;;;;;;;17.00;99.90;;;;;;5044242;28;19932;-81
2022/06/26 05:49:39;;;;;;;;;;;17.30;99.90;;;;;;5060938;28;19928;-80
2022/06/26 05:52:05;;;;;;;;;;;17.00;99.90;;;;;;5063647;28;20386;-79
2022/06/26 05:54:31;;;;;;;;;;;17.10;99.90;;;;;;5044877;28;20007;-81
2022/06/26 05:56:57;;;;;;;;;;;17.10;99.90;;;;;;5062368;28;20292;-80
2022/06/26 05:59:22;;;;;;;;;;;17.20;99.90;;;;;;5063487;28;19936;-80
2022/06/26 06:01:48;;;;;;;;;;;17.20;99.90;;;;;;5049041;28;19921;-80
2022/06/26 06:04:14;;;;;;;;;;;17.30;99.90;;;;;;5045948;28;19924;-80
2022/06/26 06:06:39;;;;;;;;;;;17.50;99.90;;;;;;5064821;28;19924;-79
2022/06/26 06:09:05;;;;;;;;;;;17.70;99.90;;;;;;5059677;28;20004;-80
2022/06/26 06:11:31;;;;;;;;;;;17.50;99.90;;;;;;5043906;28;19975;-80
2022/06/26 06:13:56;;;;;;;;;;;17.50;99.90;;;;;;5045448;28;20261;-68
2022/06/26 06:16:25;;;;;;;;;;;17.60;99.90;;;;;;5054449;28;19937;-80
2022/06/26 06:18:50;;;;;;;;;;;17.60;99.90;;;;;;5033972;28;20369;-80
2022/06/26 06:21:16;;;;;;;;;;;17.60;99.90;;;;;;5037444;28;19936;-81
2022/06/26 06:23:42;;;;;;;;;;;17.50;99.90;;;;;;5037378;28;19928;-79
2022/06/26 06:26:11;;;;;;;;;;;17.50;99.90;;;;;;5049383;28;20334;-80
2022/06/26 06:28:37;;;;;;;;;;;17.50;99.90;;;;;;5047578;28;19944;-80
2022/06/26 06:31:02;;;;;;;;;;;17.70;99.90;;;;;;5051227;28;20372;-81
2022/06/26 06:33:28;;;;;;;;;;;17.80;99.90;;;;;;5039301;28;19925;-81
2022/06/26 06:35:55;;;;;;;;;;;17.90;99.90;;;;;;5048303;28;19920;-80
2022/06/26 06:38:21;;;;;;;;;;;18.10;99.90;;;;;;5051861;28;19927;-79
2022/06/26 06:40:47;;;;;;;;;;;18.40;99.90;;;;;;5051137;28;20391;-78
2022/06/26 06:43:13;;;;;;;;;;;18.60;99.90;;;;;;5041523;28;19924;-79
2022/06/26 06:45:39;;;;;;;;;;;18.70;99.90;;;;;;5051304;28;20364;-79
2022/06/26 06:48:05;;;;;;;;;;;18.70;99.90;;;;;;5050834;28;20019;-78
2022/06/26 06:50:30;;;;;;;;;;;18.70;99.90;;;;;;5052172;28;20360;-79
2022/06/26 06:52:56;;;;;;;;;;;18.70;99.90;;;;;;5051529;28;19970;-79
2022/06/26 06:55:22;;;;;;;;;;;18.70;99.90;;;;;;5041726;28;19970;-79
2022/06/26 06:57:47;;;;;;;;;;;18.60;99.90;;;;;;5051571;28;19916;-79
2022/06/26 07:00:13;;;;;;;;;;;18.60;99.90;;;;;;5041210;28;20339;-78
2022/06/26 07:02:39;;;;;;;;;;;18.70;99.90;;;;;;5040898;28;20368;-77
2022/06/26 07:05:08;;;;;;;;;;;18.70;99.90;;;;;;5051456;28;19934;-77
2022/06/26 07:07:34;;;;;;;;;;;18.80;99.90;;;;;;5051933;28;20265;-78
2022/06/26 07:10:00;;;;;;;;;;;18.90;99.90;;;;;;5050533;28;19928;-77
2022/06/26 07:12:25;;;;;;;;;;;19.20;99.90;;;;;;5050017;28;19921;-78
2022/06/26 07:14:51;;;;;;;;;;;19.30;99.90;;;;;;5050938;28;20328;-78
2022/06/26 07:17:17;;;;;;;;;;;19.50;99.90;;;;;;5050735;28;19924;-77
2022/06/26 07:19:43;;;;;;;;;;;19.60;99.90;;;;;;5051205;28;19928;-77
2022/06/26 07:22:08;;;;;;;;;;;20.20;99.90;;;;;;5048124;28;19936;-77
2022/06/26 07:24:34;;;;;;;;;;;19.90;99.90;;;;;;5046373;28;19929;-78
2022/06/26 07:26:59;;;;;;;;;;;19.80;99.90;;;;;;5038076;28;19928;-77
2022/06/26 07:29:25;;;;;;;;;;;19.90;99.90;;;;;;5037378;28;20335;-77
2022/06/26 07:31:50;;;;;;;;;;;20.10;99.90;;;;;;5036937;28;19921;-77
2022/06/26 07:34:16;;;;;;;;;;;20.10;99.90;;;;;;5037202;28;20310;-77
2022/06/26 07:36:45;;;;;;;;;;;21.00;99.90;;;;;;5052819;28;19921;-78
2022/06/26 07:39:15;;;;;;;;;;;22.00;99.90;;;;;;5053507;28;20014;-78
2022/06/26 07:41:41;;;;;;;;;;;22.30;99.90;;;;;;5053230;28;20403;-77
2022/06/26 07:44:06;;;;;;;;;;;21.90;99.90;;;;;;5051681;28;19933;-75
2022/06/26 07:46:32;;;;;;;;;;;21.50;99.90;;;;;;5053439;28;19925;-76
2022/06/26 07:48:58;;;;;;;;;;;21.30;99.90;;;;;;5036376;28;19929;-76
2022/06/26 07:51:23;;;;;;;;;;;21.30;99.90;;;;;;5035894;28;19928;-77
2022/06/26 07:53:49;;;;;;;;;;;21.90;99.90;;;;;;5036956;28;20288;-77
2022/06/26 07:56:15;;;;;;;;;;;22.90;99.90;;;;;;5037361;28;19916;-77
2022/06/26 07:58:40;;;;;;;;;;;23.40;99.90;;;;;;5052324;28;19924;-78
2022/06/26 08:01:06;;;;;;;;;;;23.20;99.90;;;;;;5052316;28;19979;-77
2022/06/26 08:03:32;;;;;;;;;;;23.20;99.90;;;;;;5036583;28;19917;-77
2022/06/26 08:05:57;;;;;;;;;;;23.70;99.90;;;;;;5036009;28;20404;-78
2022/06/26 08:08:23;;;;;;;;;;;24.20;99.90;;;;;;5053109;28;20007;-77
2022/06/26 08:10:49;;;;;;;;;;;24.70;99.90;;;;;;5053311;28;19921;-76
2022/06/26 08:13:14;;;;;;;;;;;25.00;99.90;;;;;;5037868;28;20024;-76
2022/06/26 08:15:40;;;;;;;;;;;25.30;99.90;;;;;;5052900;28;20004;-77
2022/06/26 08:18:07;;;;;;;;;;;25.80;99.90;;;;;;5052779;28;20402;-77
2022/06/26 08:20:33;;;;;;;;;;;25.70;99.90;;;;;;5056270;28;19931;-78
2022/06/26 08:22:58;;;;;;;;;;;25.80;99.90;;;;;;5038203;28;20000;-80
2022/06/26 08:25:24;;;;;;;;;;;25.80;99.60;;;;;;5058117;28;19924;-77
2022/06/26 08:27:50;;;;;;;;;;;25.70;99.90;;;;;;5057462;28;19940;-74
2022/06/26 08:30:15;;;;;;;;;;;25.80;99.90;;;;;;5047440;28;20292;-76
2022/06/26 08:32:41;;;;;;;;;;;25.80;99.10;;;;;;5045474;28;19928;-76
2022/06/26 08:35:11;;;;;;;;;;;25.90;99.20;;;;;;5055571;28;20450;-76
2022/06/26 08:37:37;;;;;;;;;;;25.50;98.20;;;;;;5046309;28;19920;-76
2022/06/26 08:40:06;;;;;;;;;;;24.90;98.80;;;;;;5060342;28;19924;-71
2022/06/26 08:42:31;;;;;;;;;;;24.20;99.70;;;;;;5034943;28;20318;-73
2022/06/26 08:44:58;;;;;;;;;;;24.10;99.90;;;;;;5053263;28;19931;-73
2022/06/26 08:47:24;;;;;;;;;;;23.90;99.90;;;;;;5049815;28;19920;-76
2022/06/26 08:49:50;;;;;;;;;;;24.30;99.90;;;;;;5058366;28;19931;-75
2022/06/26 08:52:17;;;;;;;;;;;24.90;99.50;;;;;;5042678;28;19921;-76
2022/06/26 08:54:46;;;;;;;;;;;25.50;99.30;;;;;;5039122;28;20316;-75
2022/06/26 08:57:14;;;;;;;;;;;26.10;98.80;;;;;;5045368;28;19963;-76
2022/06/26 08:59:40;;;;;;;;;;;26.40;97.40;;;;;;5061556;28;19920;-73
2022/06/26 09:02:06;;;;;;;;;;;26.60;98.20;;;;;;5044852;28;19924;-73
2022/06/26 09:04:34;;;;;;;;;;;26.40;97.40;;;;;;5057230;28;19928;-74
2022/06/26 09:06:59;;;;;;;;;;;26.30;98.00;;;;;;5058104;28;20023;-76
2022/06/26 09:09:27;;;;;;;;;;;26.70;98.50;;;;;;5034764;28;20427;-73
2022/06/26 09:11:57;;;;;;;;;;;27.30;98.20;;;;;;5046087;28;19924;-72
2022/06/26 09:14:23;;;;;;;;;;;26.90;97.70;;;;;;5055272;28;19931;-70
2022/06/26 09:16:49;;;;;;;;;;;26.30;96.80;;;;;;5048794;28;21069;-70
2022/06/26 09:19:18;;;;;;;;;;;26.40;97.10;;;;;;5052016;28;20335;-71
2022/06/26 09:21:44;;;;;;;;;;;26.80;95.90;;;;;;5051043;28;20336;-71
2022/06/26 09:24:10;;;;;;;;;;;27.20;96.90;;;;;;5051774;28;20372;-70
2022/06/26 09:26:36;;;;;;;;;;;27.20;95.70;;;;;;5030280;28;20794;-71
2022/06/26 09:29:12;;;;;;;;;;;26.70;95.90;;;;;;5049304;28;20383;-71
2022/06/26 09:31:38;;;;;;;;;;;26.40;96.60;;;;;;5050296;28;19928;-71
2022/06/26 09:34:04;;;;;;;;;;;26.10;96.60;;;;;;5046677;28;19930;-71
2022/06/26 09:36:30;;;;;;;;;;;25.50;97.10;;;;;;5048855;28;19921;-71
2022/06/26 09:38:56;;;;;;;;;;;25.20;97.80;;;;;;5051621;28;19924;-71
2022/06/26 09:41:34;;;;;;;;;;;24.80;98.60;;;;;;5052003;28;19931;-71
2022/06/26 09:43:59;;;;;;;;;;;24.70;98.60;;;;;;5048156;28;19920;-67
2022/06/26 09:46:32;;;;;;;;;;;24.70;99.30;;;;;;5028757;28;20015;-69
2022/06/26 09:48:58;;;;;;;;;;;24.90;99.40;;;;;;5050828;28;19925;-69
2022/06/26 09:51:24;;;;;;;;;;;24.70;98.80;;;;;;5050720;28;20327;-68
2022/06/26 09:53:50;;;;;;;;;;;24.40;99.00;;;;;;5051862;28;20405;-70
2022/06/26 09:56:16;;;;;;;;;;;23.90;99.30;;;;;;5040089;28;20441;-67
2022/06/26 09:58:42;;;;;;;;;;;23.80;99.60;;;;;;5046781;28;19925;-69
2022/06/26 10:06:36;;;;;;;;;;;24.40;99.50;;;;;;5050058;28;19929;-68
2022/06/26 10:09:04;;;;;;;;;;;25.10;98.60;;;;;;5050404;28;19920;-68
2022/06/26 10:11:30;;;;;;;;;;;25.00;98.60;;;;;;5051018;28;20277;-70
2022/06/26 10:14:00;;;;;;;;;;;24.90;97.70;;;;;;5040488;28;19927;-70
2022/06/26 10:16:33;;;;;;;;;;;24.90;98.20;;;;;;5049287;28;19927;-70
2022/06/26 10:19:22;;;;;;;;;;;25.30;98.10;;;;;;5047641;28;19928;-69
2022/06/26 10:21:48;;;;;;;;;;;25.80;98.40;;;;;;5051594;28;19928;-69
2022/06/26 10:24:15;;;;;;;;;;;26.10;98.30;;;;;;5050694;28;19920;-69
2022/06/26 10:26:50;;;;;;;;;;;26.40;97.20;;;;;;5050845;28;20020;-69
2022/06/26 10:29:15;;;;;;;;;;;26.70;96.90;;;;;;5048578;28;19924;-69
2022/06/26 10:31:53;;;;;;;;;;;26.30;96.40;;;;;;5050412;28;19928;-68
2022/06/26 10:34:24;;;;;;;;;;;26.20;96.80;;;;;;5049536;28;20028;-71
2022/06/26 10:37:00;;;;;;;;;;;26.40;96.50;;;;;;5051450;28;19928;-69
2022/06/26 10:39:38;;;;;;;;;;;26.30;96.90;;;;;;5036632;28;19971;-71
2022/06/26 10:44:56;;;;;;;;;;;26.00;97.30;;;;;;5049312;28;20011;-70
2022/06/26 10:47:22;;;;;;;;;;;26.50;97.20;;;;;;5040721;28;19963;-71
2022/06/26 10:49:50;;;;;;;;;;;26.10;96.30;;;;;;5051496;28;19960;-69
2022/06/26 10:52:23;;;;;;;;;;;25.90;96.20;;;;;;5051507;28;19920;-67
2022/06/26 10:54:50;;;;;;;;;;;25.80;96.20;;;;;;5048625;28;20015;-69
2022/06/26 10:57:17;;;;;;;;;;;25.40;97.30;;;;;;5055317;28;19921;-70
2022/06/26 10:59:43;;;;;;;;;;;25.20;97.00;;;;;;5055223;28;19975;-70
2022/06/26 11:02:09;;;;;;;;;;;24.90;96.90;;;;;;5054601;28;19920;-70
2022/06/26 11:04:48;;;;;;;;;;;24.60;98.00;;;;;;5045707;28;19924;-71
2022/06/26 11:07:15;;;;;;;;;;;24.60;98.40;;;;;;5052964;28;19924;-70
2022/06/26 11:09:40;;;;;;;;;;;24.70;97.30;;;;;;5055451;28;19927;-68
2022/06/26 11:12:06;;;;;;;;;;;24.30;97.90;;;;;;5054896;28;19916;-70
2022/06/26 11:14:31;;;;;;;;;;;24.20;98.20;;;;;;5044456;28;19920;-70
2022/06/26 11:16:57;;;;;;;;;;;24.30;97.90;;;;;;5045581;28;19927;-69
2022/06/26 11:19:30;;;;;;;;;;;24.10;98.10;;;;;;5062172;28;19928;-70
2022/06/26 11:22:09;;;;;;;;;;;24.00;98.10;;;;;;5047072;28;19965;-70
2022/06/26 11:24:47;;;;;;;;;;;23.90;98.60;;;;;;5064030;28;20018;-70
2022/06/26 11:27:13;;;;;;;;;;;23.90;98.90;;;;;;5064862;28;19966;-70
2022/06/26 11:29:39;;;;;;;;;;;23.90;98.50;;;;;;5063738;28;20316;-69
2022/06/26 11:32:05;;;;;;;;;;;23.90;99.10;;;;;;5066126;28;20020;-69
2022/06/26 11:34:30;;;;;;;;;;;24.10;98.40;;;;;;5063434;28;20011;-69
2022/06/26 11:36:57;;;;;;;;;;;24.00;98.90;;;;;;5055207;28;19927;-69
2022/06/26 11:39:24;;;;;;;;;;;24.20;98.00;;;;;;5060962;28;19921;-70
2022/06/26 11:41:50;;;;;;;;;;;24.30;98.50;;;;;;5058245;28;19968;-68
2022/06/26 11:44:16;;;;;;;;;;;24.50;98.30;;;;;;5042076;28;20027;-70
2022/06/26 11:46:42;;;;;;;;;;;24.90;97.30;;;;;;5059631;28;20303;-69
2022/06/26 11:49:11;;;;;;;;;;;25.10;97.30;;;;;;5040110;28;20420;-68
2022/06/26 11:51:37;;;;;;;;;;;24.90;96.30;;;;;;5056758;28;20062;-68
2022/06/26 11:54:03;;;;;;;;;;;25.60;98.20;;;;;;5055306;28;19920;-69
2022/06/26 11:56:29;;;;;;;;;;;25.80;96.30;;;;;;5037404;28;20059;-70
2022/06/26 11:58:55;;;;;;;;;;;26.00;95.70;;;;;;5037785;28;19925;-69
2022/06/26 12:01:22;;;;;;;;;;;26.00;95.80;;;;;;5051740;28;20778;-69
2022/06/26 12:03:47;;;;;;;;;;;25.90;95.80;;;;;;5053843;28;19935;-70
2022/06/26 12:06:29;;;;;;;;;;;25.80;96.20;;;;;;5053672;28;19921;-70
2022/06/26 12:08:56;;;;;;;;;;;25.40;96.30;;;;;;5058486;28;19932;-69
2022/06/26 12:11:22;;;;;;;;;;;25.60;96.50;;;;;;5061534;28;19920;-69
2022/06/26 12:13:48;;;;;;;;;;;25.40;96.50;;;;;;5036755;28;19943;-69
2022/06/26 12:16:14;;;;;;;;;;;25.10;96.80;;;;;;5044289;28;19933;-73
2022/06/26 12:18:40;;;;;;;;;;;25.30;97.10;;;;;;5036215;28;19956;-74
2022/06/26 12:21:15;;;;;;;;;;;25.10;96.90;;;;;;5032239;28;19928;-72
2022/06/26 12:23:43;;;;;;;;;;;24.70;97.00;;;;;;5034132;28;20396;-71
2022/06/26 12:26:09;;;;;;;;;;;24.40;97.40;;;;;;5032910;28;19927;-75
2022/06/26 12:28:50;;;;;;;;;;;24.10;97.70;;;;;;5034174;28;20351;-75
2022/06/26 12:31:17;;;;;;;;;;;23.90;98.20;;;;;;5034155;28;19928;-69
2022/06/26 12:33:43;;;;;;;;;;;23.70;98.30;;;;;;5026676;28;20008;-70
2022/06/26 12:36:08;;;;;;;;;;;23.70;98.70;;;;;;5032855;28;20035;-72
2022/06/26 12:38:35;;;;;;;;;;;23.70;98.30;;;;;;5025882;28;19925;-72
2022/06/26 12:41:01;;;;;;;;;;;23.70;98.40;;;;;;5027162;28;19968;-74
2022/06/26 12:43:27;;;;;;;;;;;23.70;98.80;;;;;;5033462;28;20368;-73
2022/06/26 12:45:53;;;;;;;;;;;24.10;98.30;;;;;;5032976;28;19921;-74
2022/06/26 12:48:18;;;;;;;;;;;24.20;97.40;;;;;;5032509;28;20389;-74
2022/06/26 12:50:44;;;;;;;;;;;24.30;97.90;;;;;;5033771;28;20288;-71
2022/06/26 12:53:09;;;;;;;;;;;24.40;98.00;;;;;;5032096;28;19920;-72
2022/06/26 12:55:35;;;;;;;;;;;24.50;96.80;;;;;;5033923;28;20005;-71
2022/06/26 12:58:01;;;;;;;;;;;24.10;96.20;;;;;;5031649;28;19921;-72
2022/06/26 13:00:26;;;;;;;;;;;24.00;96.60;;;;;;5031124;28;19929;-72
2022/06/26 13:02:52;;;;;;;;;;;24.10;95.30;;;;;;5028775;28;19917;-72
2022/06/26 13:05:20;;;;;;;;;;;23.90;95.90;;;;;;5030266;28;19925;-71
2022/06/26 13:07:47;;;;;;;;;;;23.90;96.80;;;;;;5021672;28;19920;-71
2022/06/26 13:10:12;;;;;;;;;;;23.90;97.20;;;;;;5018503;28;19921;-69
2022/06/26 13:12:38;;;;;;;;;;;24.00;97.10;;;;;;5030267;28;19925;-68
2022/06/26 13:15:03;;;;;;;;;;;24.20;97.30;;;;;;5032385;28;19976;-69
2022/06/26 13:17:29;;;;;;;;;;;24.20;96.30;;;;;;5031670;28;20005;-69
2022/06/26 13:19:55;;;;;;;;;;;24.30;96.70;;;;;;5029621;28;20364;-69
2022/06/26 13:22:20;;;;;;;;;;;24.40;96.00;;;;;;5032190;28;19921;-68
2022/06/26 13:24:46;;;;;;;;;;;24.70;95.70;;;;;;5032742;28;19921;-70
2022/06/26 13:27:11;;;;;;;;;;;24.60;95.00;;;;;;5032525;28;20005;-69
2022/06/26 13:29:37;;;;;;;;;;;24.90;94.50;;;;;;5031027;28;19924;-70
2022/06/26 13:32:03;;;;;;;;;;;24.80;94.60;;;;;;5031777;28;19925;-69
2022/06/26 13:34:32;;;;;;;;;;;24.80;94.90;;;;;;5032777;28;19921;-69
2022/06/26 13:36:57;;;;;;;;;;;24.50;94.60;;;;;;5023057;28;19921;-71
2022/06/26 13:39:26;;;;;;;;;;;24.20;94.30;;;;;;5031077;28;19924;-72
2022/06/26 13:41:51;;;;;;;;;;;24.00;93.90;;;;;;5030238;28;19920;-72
2022/06/26 13:44:17;;;;;;;;;;;23.90;94.30;;;;;;5032517;28;19921;-73
2022/06/26 13:46:42;;;;;;;;;;;23.90;94.10;;;;;;5030799;28;20051;-73
2022/06/26 13:49:08;;;;;;;;;;;23.80;94.70;;;;;;5030619;28;19924;-72
2022/06/26 13:51:34;;;;;;;;;;;23.80;94.00;;;;;;5031282;28;19928;-72
2022/06/26 13:54:00;;;;;;;;;;;23.60;93.10;;;;;;5030673;28;19925;-72
2022/06/26 13:56:26;;;;;;;;;;;23.60;93.60;;;;;;5031349;28;19921;-71
2022/06/26 13:58:51;;;;;;;;;;;23.50;93.10;;;;;;5031408;28;20032;-72
2022/06/26 14:01:17;;;;;;;;;;;23.40;93.30;;;;;;5024657;28;20327;-73
2022/06/26 14:03:42;;;;;;;;;;;23.20;94.10;;;;;;5030808;28;19921;-72
2022/06/26 14:06:08;;;;;;;;;;;23.20;93.90;;;;;;5031781;28;19921;-70
2022/06/26 14:08:33;;;;;;;;;;;23.30;95.10;;;;;;5031849;28;20265;-71
2022/06/26 14:10:59;;;;;;;;;;;23.20;95.00;;;;;;5029585;28;19921;-75
2022/06/26 14:13:25;;;;;;;;;;;23.30;94.80;;;;;;5031821;28;19963;-72
2022/06/26 14:15:50;;;;;;;;;;;23.40;94.40;;;;;;5031798;28;19932;-74
2022/06/26 14:18:17;;;;;;;;;;;23.50;94.40;;;;;;5035104;28;19920;-74
2022/06/26 14:20:42;;;;;;;;;;;24.00;94.40;;;;;;5042074;28;19920;-73
2022/06/26 14:25:55;;;;;;;;;;;24.10;94.00;;;;;;5050788;28;19932;-71
2022/06/26 14:28:21;;;;;;;;;;;23.90;93.50;;;;;;5051540;28;19920;-72
2022/06/26 14:30:47;;;;;;;;;;;23.90;94.30;;;;;;5051487;28;19927;-73